sensor_id;sensor_type;location;lat;lon;timestamp;temperature;humidity
10419;DHT22;5256;48.728;9.140;2023-03-01T00:01:16;-2.40;99.90
10419;DHT22;5256;48.728;9.140;2023-03-01T00:03:42;-2.50;99.90
10419;DHT22;5256;48.728;9.140;2023-03-01T00:06:08;-2.50;99.90
10419;DHT22;5256;48.728;9.140;2023-03-01T00:08:35;-2.60;99.90
10419;DHT22;5256;48.728;9.140;2023-03-01T00:13:34;-2.70;99.90
10419;DHT22;5256;48.728;9.140;2023-03-01T00:16:08;-2.70;99.90
10419;DHT22;5256;48.728;9.140;2023-03-01T00:18:34;-2.80;99.90
10419;DHT22;5256;48.728;9.140;2023-03-01T00:21:00;-2.90;99.90
10419;DHT22;5256;48.728;9.140;2023-03-01T00:23:26;-3.00;99.90
10419;DHT22;5256;48.728;9.140;2023-03-01T00:25:52;-3.00;99.90
10419;DHT22;5256;48.728;9.140;2023-03-01T00:28:18;-3.00;99.90
10419;DHT22;5256;48.728;9.140;2023-03-01T00:30:44;-3.00;99.90
10419;DHT22;5256;48.728;9.140;2023-03-01T00:33:10;-2.90;99.90
10419;DHT22;5256;48.728;9.140;2023-03-01T00:35:35;-2.90;99.90
10419;DHT22;5256;48.728;9.140;2023-03-01T00:38:01;-2.80;99.90
10419;DHT22;5256;48.728;9.140;2023-03-01T00:40:28;-2.80;99.90
10419;DHT22;5256;48.728;9.140;2023-03-01T00:42:54;-2.80;99.90
10419;DHT22;5256;48.728;9.140;2023-03-01T00:45:20;-2.70;99.90
10419;DHT22;5256;48.728;9.140;2023-03-01T00:47:46;-2.60;99.90
10419;DHT22;5256;48.728;9.140;2023-03-01T00:50:12;-2.50;99.90
10419;DHT22;5256;48.728;9.140;2023-03-01T00:52:38;-2.50;99.90
10419;DHT22;5256;48.728;9.140;2023-03-01T00:55:04;-2.60;99.90
10419;DHT22;5256;48.728;9.140;2023-03-01T00:57:30;-2.60;99.90
10419;DHT22;5256;48.728;9.140;2023-03-01T00:59:56;-2.60;99.90
10419;DHT22;5256;48.728;9.140;2023-03-01T01:02:22;-2.70;99.90
10419;DHT22;5256;48.728;9.140;2023-03-01T01:04:47;-2.70;99.90
10419;DHT22;5256;48.728;9.140;2023-03-01T01:07:14;-2.70;99.90
10419;DHT22;5256;48.728;9.140;2023-03-01T01:09:39;-2.70;99.90
10419;DHT22;5256;48.728;9.140;2023-03-01T01:12:05;-2.80;99.90
10419;DHT22;5256;48.728;9.140;2023-03-01T01:14:31;-2.90;99.90
10419;DHT22;5256;48.728;9.140;2023-03-01T01:16:57;-2.90;99.90
10419;DHT22;5256;48.728;9.140;2023-03-01T01:19:23;-2.90;99.90
10419;DHT22;5256;48.728;9.140;2023-03-01T01:21:49;-2.90;99.90
10419;DHT22;5256;48.728;9.140;2023-03-01T01:24:16;-2.90;99.90
10419;DHT22;5256;48.728;9.140;2023-03-01T01:26:42;-2.90;99.90
10419;DHT22;5256;48.728;9.140;2023-03-01T01:29:08;-2.90;99.90
10419;DHT22;5256;48.728;9.140;2023-03-01T01:31:35;-2.90;99.90
10419;DHT22;5256;48.728;9.140;2023-03-01T01:34:03;-2.90;99.90
10419;DHT22;5256;48.728;9.140;2023-03-01T01:36:29;-2.90;99.90
10419;DHT22;5256;48.728;9.140;2023-03-01T01:38:56;-2.90;99.90
10419;DHT22;5256;48.728;9.140;2023-03-01T01:41:23;-2.90;99.90
10419;DHT22;5256;48.728;9.140;2023-03-01T01:44:20;-3.00;99.90
10419;DHT22;5256;48.728;9.140;2023-03-01T01:46:54;-3.00;99.90
10419;DHT22;5256;48.728;9.140;2023-03-01T01:52:11;-2.90;99.90
10419;DHT22;5256;48.728;9.140;2023-03-01T01:54:44;-3.00;99.90
10419;DHT22;5256;48.728;9.140;2023-03-01T02:00:08;-2.90;99.90
10419;DHT22;5256;48.728;9.140;2023-03-01T02:02:34;-2.80;99.90
10419;DHT22;5256;48.728;9.140;2023-03-01T02:05:11;-2.80;99.90
10419;DHT22;5256;48.728;9.140;2023-03-01T02:07:39;-2.70;99.90
10419;DHT22;5256;48.728;9.140;2023-03-01T02:10:06;-2.60;99.90
10419;DHT22;5256;48.728;9.140;2023-03-01T02:12:32;-2.50;99.90
10419;DHT22;5256;48.728;9.140;2023-03-01T02:14:59;-2.40;99.90
10419;DHT22;5256;48.728;9.140;2023-03-01T02:17:25;-2.30;99.90
10419;DHT22;5256;48.728;9.140;2023-03-01T02:22:43;-2.20;99.90
10419;DHT22;5256;48.728;9.140;2023-03-01T02:30:21;-2.10;99.90
10419;DHT22;5256;48.728;9.140;2023-03-01T02:32:48;-2.00;99.90
10419;DHT22;5256;48.728;9.140;2023-03-01T02:35:15;-2.00;99.90
10419;DHT22;5256;48.728;9.140;2023-03-01T02:37:43;-2.00;99.90
10419;DHT22;5256;48.728;9.140;2023-03-01T02:40:12;-1.90;99.90
10419;DHT22;5256;48.728;9.140;2023-03-01T02:42:51;-1.80;99.90
10419;DHT22;5256;48.728;9.140;2023-03-01T02:45:17;-1.80;99.90
10419;DHT22;5256;48.728;9.140;2023-03-01T02:47:42;-1.80;99.90
10419;DHT22;5256;48.728;9.140;2023-03-01T02:52:57;-1.80;99.90
10419;DHT22;5256;48.728;9.140;2023-03-01T02:55:26;-1.80;99.90
10419;DHT22;5256;48.728;9.140;2023-03-01T02:57:53;-1.80;99.90
10419;DHT22;5256;48.728;9.140;2023-03-01T03:00:26;-1.80;99.90
10419;DHT22;5256;48.728;9.140;2023-03-01T03:02:54;-1.90;99.90
10419;DHT22;5256;48.728;9.140;2023-03-01T03:05:26;-1.90;99.90
10419;DHT22;5256;48.728;9.140;2023-03-01T03:07:51;-2.00;99.90
10419;DHT22;5256;48.728;9.140;2023-03-01T03:10:22;-2.00;99.90
10419;DHT22;5256;48.728;9.140;2023-03-01T03:12:51;-1.90;99.90
10419;DHT22;5256;48.728;9.140;2023-03-01T03:15:17;-1.80;99.90
10419;DHT22;5256;48.728;9.140;2023-03-01T03:17:43;-1.80;99.90
10419;DHT22;5256;48.728;9.140;2023-03-01T03:20:11;-1.80;99.90
10419;DHT22;5256;48.728;9.140;2023-03-01T03:22:38;-1.80;99.90
10419;DHT22;5256;48.728;9.140;2023-03-01T03:25:06;-1.80;99.90
10419;DHT22;5256;48.728;9.140;2023-03-01T03:27:36;-1.70;99.90
10419;DHT22;5256;48.728;9.140;2023-03-01T03:30:03;-1.80;99.90
10419;DHT22;5256;48.728;9.140;2023-03-01T03:32:35;-1.80;99.90
10419;DHT22;5256;48.728;9.140;2023-03-01T03:35:00;-1.80;99.90
10419;DHT22;5256;48.728;9.140;2023-03-01T03:37:26;-1.80;99.90
10419;DHT22;5256;48.728;9.140;2023-03-01T03:40:17;-1.80;99.90
10419;DHT22;5256;48.728;9.140;2023-03-01T03:42:43;-1.80;99.90
10419;DHT22;5256;48.728;9.140;2023-03-01T03:45:08;-1.80;99.90
10419;DHT22;5256;48.728;9.140;2023-03-01T03:47:34;-1.80;99.90
10419;DHT22;5256;48.728;9.140;2023-03-01T03:49:59;-1.80;99.90
10419;DHT22;5256;48.728;9.140;2023-03-01T03:52:25;-1.70;99.90
10419;DHT22;5256;48.728;9.140;2023-03-01T03:54:50;-1.70;99.90
10419;DHT22;5256;48.728;9.140;2023-03-01T03:57:16;-1.70;99.90
10419;DHT22;5256;48.728;9.140;2023-03-01T03:59:41;-1.70;99.90
10419;DHT22;5256;48.728;9.140;2023-03-01T04:02:07;-1.70;99.90
10419;DHT22;5256;48.728;9.140;2023-03-01T04:04:34;-1.70;99.90
10419;DHT22;5256;48.728;9.140;2023-03-01T04:06:59;-1.70;99.90
10419;DHT22;5256;48.728;9.140;2023-03-01T04:09:25;-1.60;99.90
10419;DHT22;5256;48.728;9.140;2023-03-01T04:11:51;-1.60;99.90
10419;DHT22;5256;48.728;9.140;2023-03-01T04:14:17;-1.60;99.90
10419;DHT22;5256;48.728;9.140;2023-03-01T04:16:42;-1.60;99.90
10419;DHT22;5256;48.728;9.140;2023-03-01T04:19:08;-1.50;99.90
10419;DHT22;5256;48.728;9.140;2023-03-01T04:21:34;-1.50;99.90
10419;DHT22;5256;48.728;9.140;2023-03-01T04:24:01;-1.50;99.90
10419;DHT22;5256;48.728;9.140;2023-03-01T04:26:28;-1.50;99.90
10419;DHT22;5256;48.728;9.140;2023-03-01T04:28:54;-1.60;99.90
10419;DHT22;5256;48.728;9.140;2023-03-01T04:31:20;-1.60;99.90
10419;DHT22;5256;48.728;9.140;2023-03-01T04:33:52;-1.50;99.90
10419;DHT22;5256;48.728;9.140;2023-03-01T04:36:19;-1.50;99.90
10419;DHT22;5256;48.728;9.140;2023-03-01T04:38:45;-1.50;99.90
10419;DHT22;5256;48.728;9.140;2023-03-01T04:41:13;-1.50;99.90
10419;DHT22;5256;48.728;9.140;2023-03-01T04:43:39;-1.50;99.90
10419;DHT22;5256;48.728;9.140;2023-03-01T04:46:07;-1.50;99.90
10419;DHT22;5256;48.728;9.140;2023-03-01T04:48:37;-1.50;99.90
10419;DHT22;5256;48.728;9.140;2023-03-01T04:51:04;-1.40;99.90
10419;DHT22;5256;48.728;9.140;2023-03-01T04:53:31;-1.50;99.90
10419;DHT22;5256;48.728;9.140;2023-03-01T04:55:58;-1.40;99.90
10419;DHT22;5256;48.728;9.140;2023-03-01T04:58:25;-1.40;99.90
10419;DHT22;5256;48.728;9.140;2023-03-01T05:00:51;-1.40;99.90
10419;DHT22;5256;48.728;9.140;2023-03-01T05:03:17;-1.40;99.90
10419;DHT22;5256;48.728;9.140;2023-03-01T05:05:45;-1.30;99.90
10419;DHT22;5256;48.728;9.140;2023-03-01T05:08:11;-1.30;99.90
10419;DHT22;5256;48.728;9.140;2023-03-01T05:10:44;-1.40;99.90
10419;DHT22;5256;48.728;9.140;2023-03-01T05:13:11;-1.40;99.90
10419;DHT22;5256;48.728;9.140;2023-03-01T05:15:39;-1.40;99.90
10419;DHT22;5256;48.728;9.140;2023-03-01T05:18:05;-1.40;99.90
10419;DHT22;5256;48.728;9.140;2023-03-01T05:20:37;-1.40;99.90
10419;DHT22;5256;48.728;9.140;2023-03-01T05:23:03;-1.40;99.90
10419;DHT22;5256;48.728;9.140;2023-03-01T05:25:31;-1.40;99.90
10419;DHT22;5256;48.728;9.140;2023-03-01T05:27:59;-1.30;99.90
10419;DHT22;5256;48.728;9.140;2023-03-01T05:30:24;-1.30;99.90
10419;DHT22;5256;48.728;9.140;2023-03-01T05:32:50;-1.40;99.90
10419;DHT22;5256;48.728;9.140;2023-03-01T05:35:21;-1.30;99.90
10419;DHT22;5256;48.728;9.140;2023-03-01T05:37:48;-1.30;99.90
10419;DHT22;5256;48.728;9.140;2023-03-01T05:40:19;-1.30;99.90
10419;DHT22;5256;48.728;9.140;2023-03-01T05:42:47;-1.30;99.90
10419;DHT22;5256;48.728;9.140;2023-03-01T05:45:14;-1.20;99.90
10419;DHT22;5256;48.728;9.140;2023-03-01T05:47:41;-1.10;99.90
10419;DHT22;5256;48.728;9.140;2023-03-01T05:50:24;-1.10;99.90
10419;DHT22;5256;48.728;9.140;2023-03-01T05:53:01;-1.10;99.90
10419;DHT22;5256;48.728;9.140;2023-03-01T05:55:29;-1.10;99.90
10419;DHT22;5256;48.728;9.140;2023-03-01T05:57:55;-1.10;99.90
10419;DHT22;5256;48.728;9.140;2023-03-01T06:00:21;-1.10;99.90
10419;DHT22;5256;48.728;9.140;2023-03-01T06:02:50;-1.10;99.90
10419;DHT22;5256;48.728;9.140;2023-03-01T06:05:17;-1.00;99.90
10419;DHT22;5256;48.728;9.140;2023-03-01T06:07:43;-1.00;99.90
10419;DHT22;5256;48.728;9.140;2023-03-01T06:10:10;-1.00;99.90
10419;DHT22;5256;48.728;9.140;2023-03-01T06:12:38;-0.90;99.90
10419;DHT22;5256;48.728;9.140;2023-03-01T06:15:05;-0.90;99.90
10419;DHT22;5256;48.728;9.140;2023-03-01T06:17:33;-0.90;99.90
10419;DHT22;5256;48.728;9.140;2023-03-01T06:20:07;-0.90;99.90
10419;DHT22;5256;48.728;9.140;2023-03-01T06:22:33;-0.90;99.90
10419;DHT22;5256;48.728;9.140;2023-03-01T06:24:58;-0.90;99.90
10419;DHT22;5256;48.728;9.140;2023-03-01T06:27:24;-0.90;99.90
10419;DHT22;5256;48.728;9.140;2023-03-01T06:29:50;-0.90;99.90
10419;DHT22;5256;48.728;9.140;2023-03-01T06:32:15;-0.90;99.90
10419;DHT22;5256;48.728;9.140;2023-03-01T06:34:41;-0.90;99.90
10419;DHT22;5256;48.728;9.140;2023-03-01T06:37:07;-0.80;99.90
10419;DHT22;5256;48.728;9.140;2023-03-01T06:39:33;-0.80;99.90
10419;DHT22;5256;48.728;9.140;2023-03-01T06:41:59;-0.70;99.90
10419;DHT22;5256;48.728;9.140;2023-03-01T06:44:25;-0.70;99.90
10419;DHT22;5256;48.728;9.140;2023-03-01T06:46:51;-0.70;99.90
10419;DHT22;5256;48.728;9.140;2023-03-01T06:49:16;-0.70;99.90
10419;DHT22;5256;48.728;9.140;2023-03-01T06:51:43;-0.60;99.90
10419;DHT22;5256;48.728;9.140;2023-03-01T06:54:10;-0.60;99.90
10419;DHT22;5256;48.728;9.140;2023-03-01T06:56:35;-0.60;99.90
10419;DHT22;5256;48.728;9.140;2023-03-01T06:59:01;-0.60;99.90
10419;DHT22;5256;48.728;9.140;2023-03-01T07:01:28;-0.60;99.90
10419;DHT22;5256;48.728;9.140;2023-03-01T07:03:54;-0.60;99.90
10419;DHT22;5256;48.728;9.140;2023-03-01T07:06:19;-0.50;99.90
10419;DHT22;5256;48.728;9.140;2023-03-01T07:08:45;-0.50;99.90
10419;DHT22;5256;48.728;9.140;2023-03-01T07:11:11;-0.40;99.90
10419;DHT22;5256;48.728;9.140;2023-03-01T07:13:37;-0.40;99.90
10419;DHT22;5256;48.728;9.140;2023-03-01T07:16:03;-0.40;99.90
10419;DHT22;5256;48.728;9.140;2023-03-01T07:18:28;-0.50;99.90
10419;DHT22;5256;48.728;9.140;2023-03-01T07:20:54;-0.50;99.90
10419;DHT22;5256;48.728;9.140;2023-03-01T07:23:19;-0.50;99.90
10419;DHT22;5256;48.728;9.140;2023-03-01T07:25:54;-0.50;99.90
10419;DHT22;5256;48.728;9.140;2023-03-01T07:28:20;-0.40;99.90
10419;DHT22;5256;48.728;9.140;2023-03-01T07:30:47;-0.30;99.90
10419;DHT22;5256;48.728;9.140;2023-03-01T07:33:13;-0.10;99.90
10419;DHT22;5256;48.728;9.140;2023-03-01T07:35:38;0.30;99.90
10419;DHT22;5256;48.728;9.140;2023-03-01T07:38:04;0.60;99.90
10419;DHT22;5256;48.728;9.140;2023-03-01T07:40:29;0.70;99.90
10419;DHT22;5256;48.728;9.140;2023-03-01T07:42:56;0.90;99.90
10419;DHT22;5256;48.728;9.140;2023-03-01T07:45:22;1.20;99.90
10419;DHT22;5256;48.728;9.140;2023-03-01T07:47:47;1.20;99.90
10419;DHT22;5256;48.728;9.140;2023-03-01T07:50:13;1.40;99.90
10419;DHT22;5256;48.728;9.140;2023-03-01T07:52:39;1.50;99.90
10419;DHT22;5256;48.728;9.140;2023-03-01T07:55:04;1.50;99.90
10419;DHT22;5256;48.728;9.140;2023-03-01T07:57:30;1.70;99.90
10419;DHT22;5256;48.728;9.140;2023-03-01T07:59:56;1.80;99.90
10419;DHT22;5256;48.728;9.140;2023-03-01T08:02:22;1.80;99.90
10419;DHT22;5256;48.728;9.140;2023-03-01T08:04:48;2.20;99.90
10419;DHT22;5256;48.728;9.140;2023-03-01T08:07:13;2.30;99.90
10419;DHT22;5256;48.728;9.140;2023-03-01T08:09:39;2.10;99.90
10419;DHT22;5256;48.728;9.140;2023-03-01T08:12:05;2.10;99.90
10419;DHT22;5256;48.728;9.140;2023-03-01T08:14:32;2.00;99.90
10419;DHT22;5256;48.728;9.140;2023-03-01T08:16:57;2.20;99.90
10419;DHT22;5256;48.728;9.140;2023-03-01T08:19:23;2.40;99.90
10419;DHT22;5256;48.728;9.140;2023-03-01T08:21:49;2.20;99.90
10419;DHT22;5256;48.728;9.140;2023-03-01T08:24:14;2.20;99.90
10419;DHT22;5256;48.728;9.140;2023-03-01T08:26:40;2.10;99.90
10419;DHT22;5256;48.728;9.140;2023-03-01T08:29:05;1.70;99.90
10419;DHT22;5256;48.728;9.140;2023-03-01T08:31:35;1.40;99.90
10419;DHT22;5256;48.728;9.140;2023-03-01T08:34:03;1.30;99.90
10419;DHT22;5256;48.728;9.140;2023-03-01T08:36:38;1.20;99.90
10419;DHT22;5256;48.728;9.140;2023-03-01T08:39:04;1.20;99.90
10419;DHT22;5256;48.728;9.140;2023-03-01T08:41:30;0.90;99.90
10419;DHT22;5256;48.728;9.140;2023-03-01T08:43:56;0.90;99.90
10419;DHT22;5256;48.728;9.140;2023-03-01T08:46:30;0.90;99.90
10419;DHT22;5256;48.728;9.140;2023-03-01T08:48:56;1.00;99.90
10419;DHT22;5256;48.728;9.140;2023-03-01T08:51:22;0.90;99.90
10419;DHT22;5256;48.728;9.140;2023-03-01T08:53:48;1.00;99.90
10419;DHT22;5256;48.728;9.140;2023-03-01T08:56:15;0.90;99.90
10419;DHT22;5256;48.728;9.140;2023-03-01T08:58:45;1.10;99.90
10419;DHT22;5256;48.728;9.140;2023-03-01T09:01:13;1.00;99.90
10419;DHT22;5256;48.728;9.140;2023-03-01T09:03:39;1.10;99.90
10419;DHT22;5256;48.728;9.140;2023-03-01T09:06:06;1.00;99.90
10419;DHT22;5256;48.728;9.140;2023-03-01T09:08:38;1.00;99.90
10419;DHT22;5256;48.728;9.140;2023-03-01T09:11:05;1.10;99.90
10419;DHT22;5256;48.728;9.140;2023-03-01T09:13:31;1.30;99.90
10419;DHT22;5256;48.728;9.140;2023-03-01T09:15:59;1.40;99.90
10419;DHT22;5256;48.728;9.140;2023-03-01T09:18:25;1.50;99.90
10419;DHT22;5256;48.728;9.140;2023-03-01T09:20:51;1.70;99.90
10419;DHT22;5256;48.728;9.140;2023-03-01T09:23:16;1.70;99.90
10419;DHT22;5256;48.728;9.140;2023-03-01T09:25:42;1.70;99.90
10419;DHT22;5256;48.728;9.140;2023-03-01T09:28:07;1.80;99.90
10419;DHT22;5256;48.728;9.140;2023-03-01T09:30:33;1.80;99.90
10419;DHT22;5256;48.728;9.140;2023-03-01T09:32:58;1.90;99.90
10419;DHT22;5256;48.728;9.140;2023-03-01T09:35:24;1.90;99.90
10419;DHT22;5256;48.728;9.140;2023-03-01T09:37:50;2.00;99.90
10419;DHT22;5256;48.728;9.140;2023-03-01T09:40:20;2.10;99.90
10419;DHT22;5256;48.728;9.140;2023-03-01T09:43:13;2.10;99.90
10419;DHT22;5256;48.728;9.140;2023-03-01T09:45:43;2.40;99.90
10419;DHT22;5256;48.728;9.140;2023-03-01T09:48:21;2.50;99.90
10419;DHT22;5256;48.728;9.140;2023-03-01T09:50:49;2.30;99.90
10419;DHT22;5256;48.728;9.140;2023-03-01T09:53:21;2.30;99.90
10419;DHT22;5256;48.728;9.140;2023-03-01T09:56:03;2.40;99.90
10419;DHT22;5256;48.728;9.140;2023-03-01T10:01:28;2.40;99.90
10419;DHT22;5256;48.728;9.140;2023-03-01T10:09:38;2.70;99.90
10419;DHT22;5256;48.728;9.140;2023-03-01T10:12:09;2.80;99.90
10419;DHT22;5256;48.728;9.140;2023-03-01T10:14:48;2.90;99.90
10419;DHT22;5256;48.728;9.140;2023-03-01T10:20:24;2.80;99.90
10419;DHT22;5256;48.728;9.140;2023-03-01T10:22:50;2.80;99.90
10419;DHT22;5256;48.728;9.140;2023-03-01T10:28:17;2.90;99.90
10419;DHT22;5256;48.728;9.140;2023-03-01T10:30:45;3.00;99.90
10419;DHT22;5256;48.728;9.140;2023-03-01T10:33:35;3.00;99.90
10419;DHT22;5256;48.728;9.140;2023-03-01T10:36:03;3.00;99.90
10419;DHT22;5256;48.728;9.140;2023-03-01T10:38:31;3.10;99.90
10419;DHT22;5256;48.728;9.140;2023-03-01T10:41:11;3.30;99.90
10419;DHT22;5256;48.728;9.140;2023-03-01T10:43:58;3.10;99.90
10419;DHT22;5256;48.728;9.140;2023-03-01T10:46:31;3.00;99.90
10419;DHT22;5256;48.728;9.140;2023-03-01T10:49:20;3.10;99.90
10419;DHT22;5256;48.728;9.140;2023-03-01T10:51:48;3.30;99.90
10419;DHT22;5256;48.728;9.140;2023-03-01T10:54:35;3.40;99.90
10419;DHT22;5256;48.728;9.140;2023-03-01T10:57:03;3.50;99.90
10419;DHT22;5256;48.728;9.140;2023-03-01T10:59:34;3.50;99.90
10419;DHT22;5256;48.728;9.140;2023-03-01T11:02:22;3.50;99.90
10419;DHT22;5256;48.728;9.140;2023-03-01T11:07:57;3.70;99.90
10419;DHT22;5256;48.728;9.140;2023-03-01T11:10:36;3.60;99.90
10419;DHT22;5256;48.728;9.140;2023-03-01T11:13:28;3.70;99.90
10419;DHT22;5256;48.728;9.140;2023-03-01T11:16:06;3.70;99.90
10419;DHT22;5256;48.728;9.140;2023-03-01T11:18:34;3.60;99.90
10419;DHT22;5256;48.728;9.140;2023-03-01T11:21:01;3.70;99.90
10419;DHT22;5256;48.728;9.140;2023-03-01T11:23:29;3.90;99.90
10419;DHT22;5256;48.728;9.140;2023-03-01T11:26:01;4.00;99.90
10419;DHT22;5256;48.728;9.140;2023-03-01T11:28:29;4.10;99.90
10419;DHT22;5256;48.728;9.140;2023-03-01T11:31:02;4.10;99.90
10419;DHT22;5256;48.728;9.140;2023-03-01T11:38:36;4.20;99.90
10419;DHT22;5256;48.728;9.140;2023-03-01T11:41:13;4.20;99.90
10419;DHT22;5256;48.728;9.140;2023-03-01T11:52:07;4.20;99.90
10419;DHT22;5256;48.728;9.140;2023-03-01T12:00:05;4.50;99.90
10419;DHT22;5256;48.728;9.140;2023-03-01T12:05:52;4.40;99.90
10419;DHT22;5256;48.728;9.140;2023-03-01T12:19:51;4.80;99.90
10419;DHT22;5256;48.728;9.140;2023-03-01T12:41:53;5.40;99.90
10419;DHT22;5256;48.728;9.140;2023-03-01T12:50:20;5.60;99.90
10419;DHT22;5256;48.728;9.140;2023-03-01T12:52:57;5.50;99.90
10419;DHT22;5256;48.728;9.140;2023-03-01T12:55:29;5.50;99.90
10419;DHT22;5256;48.728;9.140;2023-03-01T13:01:13;5.60;99.90
10419;DHT22;5256;48.728;9.140;2023-03-01T13:06:35;5.80;99.90
10419;DHT22;5256;48.728;9.140;2023-03-01T13:11:50;5.60;99.90
10419;DHT22;5256;48.728;9.140;2023-03-01T13:16:53;5.90;99.90
10419;DHT22;5256;48.728;9.140;2023-03-01T13:19:25;6.10;99.90
10419;DHT22;5256;48.728;9.140;2023-03-01T13:21:53;6.00;99.90
10419;DHT22;5256;48.728;9.140;2023-03-01T13:24:41;6.10;99.90
10419;DHT22;5256;48.728;9.140;2023-03-01T13:29:45;6.00;99.90
10419;DHT22;5256;48.728;9.140;2023-03-01T13:32:38;6.20;99.90
10419;DHT22;5256;48.728;9.140;2023-03-01T13:37:40;6.20;99.90
10419;DHT22;5256;48.728;9.140;2023-03-01T13:42:50;6.30;99.90
10419;DHT22;5256;48.728;9.140;2023-03-01T13:45:23;6.40;99.90
10419;DHT22;5256;48.728;9.140;2023-03-01T13:47:57;6.60;99.90
10419;DHT22;5256;48.728;9.140;2023-03-01T13:50:25;6.60;99.90
10419;DHT22;5256;48.728;9.140;2023-03-01T13:52:59;6.60;99.90
10419;DHT22;5256;48.728;9.140;2023-03-01T13:55:44;6.60;99.90
10419;DHT22;5256;48.728;9.140;2023-03-01T13:58:21;6.60;99.90
10419;DHT22;5256;48.728;9.140;2023-03-01T14:00:47;6.50;99.90
10419;DHT22;5256;48.728;9.140;2023-03-01T14:03:18;6.60;99.90
10419;DHT22;5256;48.728;9.140;2023-03-01T14:06:03;6.60;99.90
10419;DHT22;5256;48.728;9.140;2023-03-01T14:08:32;6.50;99.90
10419;DHT22;5256;48.728;9.140;2023-03-01T14:14:25;6.30;99.90
10419;DHT22;5256;48.728;9.140;2023-03-01T14:19:53;6.30;99.90
10419;DHT22;5256;48.728;9.140;2023-03-01T14:22:27;6.40;99.90
10419;DHT22;5256;48.728;9.140;2023-03-01T14:25:17;6.30;99.90
10419;DHT22;5256;48.728;9.140;2023-03-01T14:27:44;6.20;99.90
10419;DHT22;5256;48.728;9.140;2023-03-01T14:30:30;6.10;99.90
10419;DHT22;5256;48.728;9.140;2023-03-01T14:33:00;6.10;99.90
10419;DHT22;5256;48.728;9.140;2023-03-01T14:35:31;6.10;99.90
10419;DHT22;5256;48.728;9.140;2023-03-01T14:37:57;6.10;99.90
10419;DHT22;5256;48.728;9.140;2023-03-01T14:40:35;6.10;99.90
10419;DHT22;5256;48.728;9.140;2023-03-01T14:43:08;6.00;99.90
10419;DHT22;5256;48.728;9.140;2023-03-01T14:45:35;6.00;99.90
10419;DHT22;5256;48.728;9.140;2023-03-01T14:48:02;6.00;99.90
10419;DHT22;5256;48.728;9.140;2023-03-01T14:50:31;6.10;99.90
10419;DHT22;5256;48.728;9.140;2023-03-01T14:53:00;6.10;99.90
10419;DHT22;5256;48.728;9.140;2023-03-01T14:55:40;6.10;99.90
10419;DHT22;5256;48.728;9.140;2023-03-01T14:58:12;6.10;99.90
10419;DHT22;5256;48.728;9.140;2023-03-01T15:00:38;6.10;99.90
10419;DHT22;5256;48.728;9.140;2023-03-01T15:03:11;6.20;99.90
10419;DHT22;5256;48.728;9.140;2023-03-01T15:05:39;6.20;99.90
10419;DHT22;5256;48.728;9.140;2023-03-01T15:08:05;6.10;99.90
10419;DHT22;5256;48.728;9.140;2023-03-01T15:10:36;6.10;99.90
10419;DHT22;5256;48.728;9.140;2023-03-01T15:13:13;6.10;99.90
10419;DHT22;5256;48.728;9.140;2023-03-01T15:15:44;6.30;99.90
10419;DHT22;5256;48.728;9.140;2023-03-01T15:18:18;6.40;99.90
10419;DHT22;5256;48.728;9.140;2023-03-01T15:20:44;6.50;99.90
10419;DHT22;5256;48.728;9.140;2023-03-01T15:23:28;6.40;99.90
10419;DHT22;5256;48.728;9.140;2023-03-01T15:25:54;6.40;99.90
10419;DHT22;5256;48.728;9.140;2023-03-01T15:28:28;6.30;99.90
10419;DHT22;5256;48.728;9.140;2023-03-01T15:35:54;6.40;99.90
10419;DHT22;5256;48.728;9.140;2023-03-01T15:38:36;6.50;99.90
10419;DHT22;5256;48.728;9.140;2023-03-01T15:41:47;6.50;99.90
10419;DHT22;5256;48.728;9.140;2023-03-01T15:44:38;6.60;99.90
10419;DHT22;5256;48.728;9.140;2023-03-01T15:47:21;6.80;99.90
10419;DHT22;5256;48.728;9.140;2023-03-01T15:49:47;6.60;99.90
10419;DHT22;5256;48.728;9.140;2023-03-01T15:52:23;6.50;99.90
10419;DHT22;5256;48.728;9.140;2023-03-01T15:54:59;6.60;99.90
10419;DHT22;5256;48.728;9.140;2023-03-01T15:57:26;6.50;99.90
10419;DHT22;5256;48.728;9.140;2023-03-01T15:59:51;6.40;99.90
10419;DHT22;5256;48.728;9.140;2023-03-01T16:02:17;6.30;99.90
10419;DHT22;5256;48.728;9.140;2023-03-01T16:04:42;6.30;99.90
10419;DHT22;5256;48.728;9.140;2023-03-01T16:07:09;6.20;99.90
10419;DHT22;5256;48.728;9.140;2023-03-01T16:09:35;6.20;99.90
10419;DHT22;5256;48.728;9.140;2023-03-01T16:12:01;6.20;99.90
10419;DHT22;5256;48.728;9.140;2023-03-01T16:14:27;6.00;99.90
10419;DHT22;5256;48.728;9.140;2023-03-01T16:16:52;5.90;99.90
10419;DHT22;5256;48.728;9.140;2023-03-01T16:19:18;5.60;99.90
10419;DHT22;5256;48.728;9.140;2023-03-01T16:21:44;5.50;99.90
10419;DHT22;5256;48.728;9.140;2023-03-01T16:24:12;5.40;99.90
10419;DHT22;5256;48.728;9.140;2023-03-01T16:26:38;5.40;99.90
10419;DHT22;5256;48.728;9.140;2023-03-01T16:29:04;5.30;99.90
10419;DHT22;5256;48.728;9.140;2023-03-01T16:31:30;5.20;99.90
10419;DHT22;5256;48.728;9.140;2023-03-01T16:33:57;5.20;99.90
10419;DHT22;5256;48.728;9.140;2023-03-01T16:36:24;5.20;99.90
10419;DHT22;5256;48.728;9.140;2023-03-01T16:38:51;5.10;99.90
10419;DHT22;5256;48.728;9.140;2023-03-01T16:41:19;5.10;99.90
10419;DHT22;5256;48.728;9.140;2023-03-01T16:43:46;5.00;99.90
10419;DHT22;5256;48.728;9.140;2023-03-01T16:46:14;5.00;99.90
10419;DHT22;5256;48.728;9.140;2023-03-01T16:48:40;5.00;99.90
10419;DHT22;5256;48.728;9.140;2023-03-01T16:51:06;4.90;99.90
10419;DHT22;5256;48.728;9.140;2023-03-01T16:53:33;4.90;99.90
10419;DHT22;5256;48.728;9.140;2023-03-01T16:56:02;4.90;99.90
10419;DHT22;5256;48.728;9.140;2023-03-01T16:58:27;4.80;99.90
10419;DHT22;5256;48.728;9.140;2023-03-01T17:00:53;4.80;99.90
10419;DHT22;5256;48.728;9.140;2023-03-01T17:03:20;4.80;99.90
10419;DHT22;5256;48.728;9.140;2023-03-01T17:05:46;4.70;99.90
10419;DHT22;5256;48.728;9.140;2023-03-01T17:08:12;4.60;99.90
10419;DHT22;5256;48.728;9.140;2023-03-01T17:10:37;4.60;99.90
10419;DHT22;5256;48.728;9.140;2023-03-01T17:13:03;4.60;99.90
10419;DHT22;5256;48.728;9.140;2023-03-01T17:15:29;4.60;99.90
10419;DHT22;5256;48.728;9.140;2023-03-01T17:17:55;4.50;99.90
10419;DHT22;5256;48.728;9.140;2023-03-01T17:20:21;4.40;99.90
10419;DHT22;5256;48.728;9.140;2023-03-01T17:22:46;4.30;99.90
10419;DHT22;5256;48.728;9.140;2023-03-01T17:25:12;4.30;99.90
10419;DHT22;5256;48.728;9.140;2023-03-01T17:27:39;4.30;99.90
10419;DHT22;5256;48.728;9.140;2023-03-01T17:30:07;4.30;99.90
10419;DHT22;5256;48.728;9.140;2023-03-01T17:32:34;4.20;99.90
10419;DHT22;5256;48.728;9.140;2023-03-01T17:34:59;4.10;99.90
10419;DHT22;5256;48.728;9.140;2023-03-01T17:37:25;4.00;99.90
10419;DHT22;5256;48.728;9.140;2023-03-01T17:39:50;3.90;99.90
10419;DHT22;5256;48.728;9.140;2023-03-01T17:42:16;3.80;99.90
10419;DHT22;5256;48.728;9.140;2023-03-01T17:44:41;3.80;99.90
10419;DHT22;5256;48.728;9.140;2023-03-01T17:47:08;3.70;99.90
10419;DHT22;5256;48.728;9.140;2023-03-01T17:49:34;3.60;99.90
10419;DHT22;5256;48.728;9.140;2023-03-01T17:51:59;3.50;99.90
10419;DHT22;5256;48.728;9.140;2023-03-01T17:54:25;3.40;99.90
10419;DHT22;5256;48.728;9.140;2023-03-01T17:56:51;3.40;99.90
10419;DHT22;5256;48.728;9.140;2023-03-01T17:59:17;3.30;99.90
10419;DHT22;5256;48.728;9.140;2023-03-01T18:01:43;3.20;99.90
10419;DHT22;5256;48.728;9.140;2023-03-01T18:04:09;3.20;99.90
10419;DHT22;5256;48.728;9.140;2023-03-01T18:06:35;3.20;99.90
10419;DHT22;5256;48.728;9.140;2023-03-01T18:09:00;3.20;99.90
10419;DHT22;5256;48.728;9.140;2023-03-01T18:11:26;3.20;99.90